16:50
Airports
History
Links
Donate
Help keep this website running!
PayPal
Bitcoin
Information on this page is community maintained and may be outdated or inaccurate and is intended for reference only or PC simulator navigating.
Always use approved charts for navigating.
SBBV
Boa Vista Intl
Boa Vista Intl (SBBV)
Boa Vista, Roraima, Brazil (69310)
(C)
Lat/Lng:2° 50' 46.72" N / 60° 41' 24.24" W
2.846311 / -60.690068
Elevation:275'ft 84mMSL
ID / ICAO:SBBV
Runways:1
Longest:(08-26) 2,703.7m 8,870ft Asphalt
Controlled:Yes
Beacon:Green
Distance To
Airport ID:
Airport Radio Frequencies
Ground: 121.7
Tower: 118.1
Approach: 120.1
Nearby VORs <50NM
Nearby NDBs
METARUpdated 07-21-17 16:00 GMT
Altimeter: 30.03
Visibility: 6.2 statute miles
Wind: 4 knots (340°)
Temp: 26°c 79°f
Humidity: 83.6%

METAR: SBBV 211600Z 34004KT 9999 BKN010 BKN020 OVC070 26/23 Q1017

(Powered by phpweather)
Runway 08 / 26
Dimensions:2703.7 x 45.1m 8870' x 148'ft
Surface:Asphalt
Edge Lights:Medium intensity
Runway 08 [A]Runway 26 [B]
Heading:062°TH 242°TH
Lat:
Lng:
2° 50' 26.77"N
60° 42' 3.24"W
2° 51' 6.67"N
60° 40' 45.25"W
ALS:SALS
User Notes and Comments
Google Map
Nearby Airports
4 Ouro Fino 6.7 NM
SWOF NNW 341°
4 Novo Intento 6.8 NM
SWNN SE 132°
(U) Pouso da Aguia 8.3 NM
SWPD ESE 121°
4 Estancia Norteagro 13.3 NM
SWQR SSW 207°
4 Barra do Vento 13.5 NM
SJQK SW 219°
4 Fazenda Sao Marco 20.0 NM
SWSK NE 45°
4 Milho 42.0 NM
SJLT NNE 27°
VFR Chart
Flight Planning at SkyVector.com